sensor_id;sensor_type;location;lat;lon;timestamp;P1;durP1;ratioP1;P2;durP2;ratioP2
18265;SDS011;9259;48.194;16.322;2022-07-23T00:01:35;12.90;;;8.82;;
18265;SDS011;9259;48.194;16.322;2022-07-23T00:04:04;13.30;;;7.65;;
18265;SDS011;9259;48.194;16.322;2022-07-23T00:06:31;12.32;;;8.68;;
18265;SDS011;9259;48.194;16.322;2022-07-23T00:08:59;12.43;;;8.25;;
18265;SDS011;9259;48.194;16.322;2022-07-23T00:11:27;10.07;;;7.80;;
18265;SDS011;9259;48.194;16.322;2022-07-23T00:13:58;16.42;;;8.52;;
18265;SDS011;9259;48.194;16.322;2022-07-23T00:16:26;13.45;;;8.75;;
18265;SDS011;9259;48.194;16.322;2022-07-23T00:18:54;19.88;;;9.43;;
18265;SDS011;9259;48.194;16.322;2022-07-23T00:21:22;11.48;;;8.13;;
18265;SDS011;9259;48.194;16.322;2022-07-23T00:23:50;15.07;;;9.10;;
18265;SDS011;9259;48.194;16.322;2022-07-23T00:26:18;15.52;;;9.32;;
18265;SDS011;9259;48.194;16.322;2022-07-23T00:28:46;13.32;;;8.63;;
18265;SDS011;9259;48.194;16.322;2022-07-23T00:31:15;13.98;;;9.18;;
18265;SDS011;9259;48.194;16.322;2022-07-23T00:33:43;16.15;;;8.75;;
18265;SDS011;9259;48.194;16.322;2022-07-23T00:36:11;11.60;;;8.55;;
18265;SDS011;9259;48.194;16.322;2022-07-23T00:38:39;13.07;;;9.13;;
18265;SDS011;9259;48.194;16.322;2022-07-23T00:41:07;11.88;;;8.98;;
18265;SDS011;9259;48.194;16.322;2022-07-23T00:43:34;12.13;;;9.30;;
18265;SDS011;9259;48.194;16.322;2022-07-23T00:46:02;12.35;;;8.43;;
18265;SDS011;9259;48.194;16.322;2022-07-23T00:48:32;14.52;;;9.35;;
18265;SDS011;9259;48.194;16.322;2022-07-23T00:51:00;12.55;;;8.50;;
18265;SDS011;9259;48.194;16.322;2022-07-23T00:53:29;12.38;;;8.52;;
18265;SDS011;9259;48.194;16.322;2022-07-23T00:55:57;12.43;;;8.27;;
18265;SDS011;9259;48.194;16.322;2022-07-23T00:58:25;12.38;;;8.00;;
18265;SDS011;9259;48.194;16.322;2022-07-23T01:00:53;11.63;;;8.10;;
18265;SDS011;9259;48.194;16.322;2022-07-23T01:03:21;11.65;;;8.35;;
18265;SDS011;9259;48.194;16.322;2022-07-23T01:05:50;10.98;;;8.02;;
18265;SDS011;9259;48.194;16.322;2022-07-23T01:08:19;13.20;;;8.18;;
18265;SDS011;9259;48.194;16.322;2022-07-23T01:10:47;12.35;;;8.30;;
18265;SDS011;9259;48.194;16.322;2022-07-23T01:13:16;19.55;;;7.78;;
18265;SDS011;9259;48.194;16.322;2022-07-23T01:15:45;13.45;;;8.63;;
18265;SDS011;9259;48.194;16.322;2022-07-23T01:18:15;13.57;;;8.15;;
18265;SDS011;9259;48.194;16.322;2022-07-23T01:20:43;14.48;;;8.30;;
18265;SDS011;9259;48.194;16.322;2022-07-23T01:23:12;10.40;;;7.47;;
18265;SDS011;9259;48.194;16.322;2022-07-23T01:25:46;11.98;;;7.43;;
18265;SDS011;9259;48.194;16.322;2022-07-23T01:28:15;12.05;;;7.00;;
18265;SDS011;9259;48.194;16.322;2022-07-23T01:30:43;10.88;;;7.75;;
18265;SDS011;9259;48.194;16.322;2022-07-23T01:33:11;11.75;;;7.93;;
18265;SDS011;9259;48.194;16.322;2022-07-23T01:35:39;12.65;;;8.07;;
18265;SDS011;9259;48.194;16.322;2022-07-23T01:38:10;13.25;;;8.85;;
18265;SDS011;9259;48.194;16.322;2022-07-23T01:40:40;12.45;;;8.75;;
18265;SDS011;9259;48.194;16.322;2022-07-23T01:43:08;16.95;;;9.25;;
18265;SDS011;9259;48.194;16.322;2022-07-23T01:45:36;12.52;;;9.48;;
18265;SDS011;9259;48.194;16.322;2022-07-23T01:48:04;12.80;;;9.48;;
18265;SDS011;9259;48.194;16.322;2022-07-23T01:50:33;15.82;;;9.68;;
18265;SDS011;9259;48.194;16.322;2022-07-23T01:53:01;13.65;;;10.30;;
18265;SDS011;9259;48.194;16.322;2022-07-23T01:55:30;15.80;;;9.68;;
18265;SDS011;9259;48.194;16.322;2022-07-23T01:57:58;13.48;;;10.18;;
18265;SDS011;9259;48.194;16.322;2022-07-23T02:00:26;19.45;;;10.73;;
18265;SDS011;9259;48.194;16.322;2022-07-23T02:02:57;14.23;;;10.68;;
18265;SDS011;9259;48.194;16.322;2022-07-23T02:05:26;16.15;;;10.63;;
18265;SDS011;9259;48.194;16.322;2022-07-23T02:07:55;15.98;;;9.98;;
18265;SDS011;9259;48.194;16.322;2022-07-23T02:10:24;15.25;;;9.93;;
18265;SDS011;9259;48.194;16.322;2022-07-23T02:12:53;14.35;;;10.02;;
18265;SDS011;9259;48.194;16.322;2022-07-23T02:15:21;14.57;;;9.68;;
18265;SDS011;9259;48.194;16.322;2022-07-23T02:17:49;16.52;;;9.70;;
18265;SDS011;9259;48.194;16.322;2022-07-23T02:20:17;16.20;;;10.07;;
18265;SDS011;9259;48.194;16.322;2022-07-23T02:22:45;15.30;;;9.45;;
18265;SDS011;9259;48.194;16.322;2022-07-23T02:25:14;16.08;;;9.85;;
18265;SDS011;9259;48.194;16.322;2022-07-23T02:27:42;13.27;;;9.65;;
18265;SDS011;9259;48.194;16.322;2022-07-23T02:30:12;13.25;;;10.18;;
18265;SDS011;9259;48.194;16.322;2022-07-23T02:32:40;17.58;;;10.10;;
18265;SDS011;9259;48.194;16.322;2022-07-23T02:35:08;15.70;;;10.10;;
18265;SDS011;9259;48.194;16.322;2022-07-23T02:37:36;12.07;;;9.32;;
18265;SDS011;9259;48.194;16.322;2022-07-23T02:40:05;13.55;;;10.75;;
18265;SDS011;9259;48.194;16.322;2022-07-23T02:42:33;14.07;;;10.30;;
18265;SDS011;9259;48.194;16.322;2022-07-23T02:45:01;13.68;;;10.07;;
18265;SDS011;9259;48.194;16.322;2022-07-23T02:47:31;11.15;;;9.70;;
18265;SDS011;9259;48.194;16.322;2022-07-23T02:49:59;13.68;;;10.52;;
18265;SDS011;9259;48.194;16.322;2022-07-23T02:52:27;12.68;;;10.13;;
18265;SDS011;9259;48.194;16.322;2022-07-23T02:54:55;14.30;;;10.60;;
18265;SDS011;9259;48.194;16.322;2022-07-23T02:57:23;16.27;;;10.55;;
18265;SDS011;9259;48.194;16.322;2022-07-23T02:59:51;12.90;;;10.50;;
18265;SDS011;9259;48.194;16.322;2022-07-23T03:02:21;15.68;;;10.40;;
18265;SDS011;9259;48.194;16.322;2022-07-23T03:04:51;12.35;;;9.98;;
18265;SDS011;9259;48.194;16.322;2022-07-23T03:07:19;16.70;;;10.25;;
18265;SDS011;9259;48.194;16.322;2022-07-23T03:09:47;12.80;;;9.27;;
18265;SDS011;9259;48.194;16.322;2022-07-23T03:12:15;16.25;;;10.50;;
18265;SDS011;9259;48.194;16.322;2022-07-23T03:14:43;14.93;;;9.90;;
18265;SDS011;9259;48.194;16.322;2022-07-23T03:17:11;13.25;;;10.18;;
18265;SDS011;9259;48.194;16.322;2022-07-23T03:19:39;11.15;;;9.50;;
18265;SDS011;9259;48.194;16.322;2022-07-23T03:22:09;15.05;;;10.25;;
18265;SDS011;9259;48.194;16.322;2022-07-23T03:24:37;13.32;;;9.18;;
18265;SDS011;9259;48.194;16.322;2022-07-23T03:27:23;14.10;;;9.82;;
18265;SDS011;9259;48.194;16.322;2022-07-23T03:29:53;11.32;;;9.40;;
18265;SDS011;9259;48.194;16.322;2022-07-23T03:32:22;15.55;;;10.07;;
18265;SDS011;9259;48.194;16.322;2022-07-23T03:34:50;13.95;;;9.68;;
18265;SDS011;9259;48.194;16.322;2022-07-23T03:37:20;19.15;;;10.40;;
18265;SDS011;9259;48.194;16.322;2022-07-23T03:39:48;12.38;;;9.77;;
18265;SDS011;9259;48.194;16.322;2022-07-23T03:42:16;11.40;;;9.60;;
18265;SDS011;9259;48.194;16.322;2022-07-23T03:44:44;13.55;;;9.27;;
18265;SDS011;9259;48.194;16.322;2022-07-23T03:47:12;15.40;;;9.90;;
18265;SDS011;9259;48.194;16.322;2022-07-23T03:49:42;12.90;;;9.52;;
18265;SDS011;9259;48.194;16.322;2022-07-23T03:52:11;13.05;;;9.57;;
18265;SDS011;9259;48.194;16.322;2022-07-23T03:54:41;11.95;;;9.70;;
18265;SDS011;9259;48.194;16.322;2022-07-23T03:57:09;12.95;;;10.40;;
18265;SDS011;9259;48.194;16.322;2022-07-23T03:59:37;12.40;;;10.13;;
18265;SDS011;9259;48.194;16.322;2022-07-23T04:02:05;14.65;;;9.73;;
18265;SDS011;9259;48.194;16.322;2022-07-23T04:04:33;13.88;;;9.90;;
18265;SDS011;9259;48.194;16.322;2022-07-23T04:07:02;13.38;;;10.52;;
18265;SDS011;9259;48.194;16.322;2022-07-23T04:09:30;11.90;;;9.23;;
18265;SDS011;9259;48.194;16.322;2022-07-23T04:11:59;15.05;;;10.77;;
18265;SDS011;9259;48.194;16.322;2022-07-23T04:14:27;12.82;;;9.80;;
18265;SDS011;9259;48.194;16.322;2022-07-23T04:16:56;14.02;;;10.05;;
18265;SDS011;9259;48.194;16.322;2022-07-23T04:19:24;13.15;;;10.00;;
18265;SDS011;9259;48.194;16.322;2022-07-23T04:21:52;12.35;;;8.73;;
18265;SDS011;9259;48.194;16.322;2022-07-23T04:24:20;11.10;;;8.88;;
18265;SDS011;9259;48.194;16.322;2022-07-23T04:26:48;13.68;;;9.60;;
18265;SDS011;9259;48.194;16.322;2022-07-23T04:29:18;14.10;;;9.13;;
18265;SDS011;9259;48.194;16.322;2022-07-23T04:31:46;13.32;;;9.13;;
18265;SDS011;9259;48.194;16.322;2022-07-23T04:34:14;13.65;;;9.60;;
18265;SDS011;9259;48.194;16.322;2022-07-23T04:36:42;11.38;;;9.00;;
18265;SDS011;9259;48.194;16.322;2022-07-23T04:39:10;18.58;;;9.95;;
18265;SDS011;9259;48.194;16.322;2022-07-23T04:41:38;12.02;;;9.05;;
18265;SDS011;9259;48.194;16.322;2022-07-23T04:44:06;16.05;;;9.40;;
18265;SDS011;9259;48.194;16.322;2022-07-23T04:46:36;13.35;;;9.18;;
18265;SDS011;9259;48.194;16.322;2022-07-23T04:49:04;15.63;;;10.25;;
18265;SDS011;9259;48.194;16.322;2022-07-23T04:51:32;13.63;;;9.30;;
18265;SDS011;9259;48.194;16.322;2022-07-23T04:54:10;14.15;;;9.43;;
18265;SDS011;9259;48.194;16.322;2022-07-23T04:56:38;14.77;;;9.57;;
18265;SDS011;9259;48.194;16.322;2022-07-23T04:59:06;12.25;;;9.45;;
18265;SDS011;9259;48.194;16.322;2022-07-23T05:01:36;11.95;;;9.13;;
18265;SDS011;9259;48.194;16.322;2022-07-23T05:04:04;12.68;;;8.93;;
18265;SDS011;9259;48.194;16.322;2022-07-23T05:06:32;12.60;;;9.82;;
18265;SDS011;9259;48.194;16.322;2022-07-23T05:09:00;12.40;;;9.18;;
18265;SDS011;9259;48.194;16.322;2022-07-23T05:11:28;14.07;;;9.60;;
18265;SDS011;9259;48.194;16.322;2022-07-23T05:13:56;13.68;;;9.15;;
18265;SDS011;9259;48.194;16.322;2022-07-23T05:16:26;17.70;;;10.05;;
18265;SDS011;9259;48.194;16.322;2022-07-23T05:18:55;14.07;;;9.50;;
18265;SDS011;9259;48.194;16.322;2022-07-23T05:21:23;14.13;;;9.52;;
18265;SDS011;9259;48.194;16.322;2022-07-23T05:23:51;13.90;;;9.05;;
18265;SDS011;9259;48.194;16.322;2022-07-23T05:26:19;13.90;;;9.38;;
18265;SDS011;9259;48.194;16.322;2022-07-23T05:28:48;11.88;;;9.43;;
18265;SDS011;9259;48.194;16.322;2022-07-23T05:31:16;14.50;;;10.02;;
18265;SDS011;9259;48.194;16.322;2022-07-23T05:33:44;17.25;;;9.65;;
18265;SDS011;9259;48.194;16.322;2022-07-23T05:36:13;14.05;;;9.43;;
18265;SDS011;9259;48.194;16.322;2022-07-23T05:38:41;13.57;;;9.05;;
18265;SDS011;9259;48.194;16.322;2022-07-23T05:41:09;11.98;;;8.73;;
18265;SDS011;9259;48.194;16.322;2022-07-23T05:43:37;11.30;;;9.30;;
18265;SDS011;9259;48.194;16.322;2022-07-23T05:46:05;16.85;;;9.43;;
18265;SDS011;9259;48.194;16.322;2022-07-23T05:48:33;15.38;;;9.80;;
18265;SDS011;9259;48.194;16.322;2022-07-23T05:51:01;13.48;;;9.73;;
18265;SDS011;9259;48.194;16.322;2022-07-23T05:53:33;11.73;;;9.45;;
18265;SDS011;9259;48.194;16.322;2022-07-23T05:56:02;12.48;;;9.93;;
18265;SDS011;9259;48.194;16.322;2022-07-23T05:58:30;11.40;;;9.25;;
18265;SDS011;9259;48.194;16.322;2022-07-23T06:00:58;18.20;;;9.45;;
18265;SDS011;9259;48.194;16.322;2022-07-23T06:03:29;12.07;;;9.40;;
18265;SDS011;9259;48.194;16.322;2022-07-23T06:05:57;12.48;;;9.35;;
18265;SDS011;9259;48.194;16.322;2022-07-23T06:08:25;10.88;;;8.43;;
18265;SDS011;9259;48.194;16.322;2022-07-23T06:10:54;9.82;;;8.80;;
18265;SDS011;9259;48.194;16.322;2022-07-23T06:13:23;9.57;;;8.38;;
18265;SDS011;9259;48.194;16.322;2022-07-23T06:15:51;10.35;;;8.80;;
18265;SDS011;9259;48.194;16.322;2022-07-23T06:18:19;10.95;;;8.38;;
18265;SDS011;9259;48.194;16.322;2022-07-23T06:20:47;11.40;;;7.82;;
18265;SDS011;9259;48.194;16.322;2022-07-23T06:23:15;11.00;;;8.60;;
18265;SDS011;9259;48.194;16.322;2022-07-23T06:25:43;10.80;;;7.90;;
18265;SDS011;9259;48.194;16.322;2022-07-23T06:28:13;11.93;;;8.20;;
18265;SDS011;9259;48.194;16.322;2022-07-23T06:30:41;12.02;;;7.72;;
18265;SDS011;9259;48.194;16.322;2022-07-23T06:33:09;11.90;;;7.45;;
18265;SDS011;9259;48.194;16.322;2022-07-23T06:35:38;9.57;;;7.22;;
18265;SDS011;9259;48.194;16.322;2022-07-23T06:38:06;14.30;;;7.25;;
18265;SDS011;9259;48.194;16.322;2022-07-23T06:40:34;9.75;;;6.68;;
18265;SDS011;9259;48.194;16.322;2022-07-23T06:43:02;9.50;;;6.38;;
18265;SDS011;9259;48.194;16.322;2022-07-23T06:45:31;10.10;;;6.68;;
18265;SDS011;9259;48.194;16.322;2022-07-23T06:47:59;7.68;;;6.13;;
18265;SDS011;9259;48.194;16.322;2022-07-23T06:50:28;9.98;;;6.60;;
18265;SDS011;9259;48.194;16.322;2022-07-23T06:52:56;8.80;;;6.35;;
18265;SDS011;9259;48.194;16.322;2022-07-23T06:55:24;8.07;;;7.05;;
18265;SDS011;9259;48.194;16.322;2022-07-23T06:57:52;8.15;;;6.20;;
18265;SDS011;9259;48.194;16.322;2022-07-23T07:00:20;6.80;;;6.00;;
18265;SDS011;9259;48.194;16.322;2022-07-23T07:02:50;7.80;;;5.80;;
18265;SDS011;9259;48.194;16.322;2022-07-23T07:05:24;8.50;;;6.63;;
18265;SDS011;9259;48.194;16.322;2022-07-23T07:07:53;9.15;;;5.78;;
18265;SDS011;9259;48.194;16.322;2022-07-23T07:10:21;8.65;;;5.60;;
18265;SDS011;9259;48.194;16.322;2022-07-23T07:12:49;6.68;;;5.65;;
18265;SDS011;9259;48.194;16.322;2022-07-23T07:15:17;7.85;;;5.07;;
18265;SDS011;9259;48.194;16.322;2022-07-23T07:17:45;6.63;;;4.63;;
18265;SDS011;9259;48.194;16.322;2022-07-23T07:20:15;7.22;;;4.97;;
18265;SDS011;9259;48.194;16.322;2022-07-23T07:22:42;6.68;;;5.03;;
18265;SDS011;9259;48.194;16.322;2022-07-23T07:25:10;9.70;;;4.88;;
18265;SDS011;9259;48.194;16.322;2022-07-23T07:27:42;6.90;;;4.63;;
18265;SDS011;9259;48.194;16.322;2022-07-23T07:30:10;7.38;;;4.97;;
18265;SDS011;9259;48.194;16.322;2022-07-23T07:32:39;7.32;;;4.50;;
18265;SDS011;9259;48.194;16.322;2022-07-23T07:35:07;6.70;;;4.90;;
18265;SDS011;9259;48.194;16.322;2022-07-23T07:37:37;5.60;;;4.80;;
18265;SDS011;9259;48.194;16.322;2022-07-23T07:40:05;6.32;;;4.55;;
18265;SDS011;9259;48.194;16.322;2022-07-23T07:42:40;5.65;;;5.05;;
18265;SDS011;9259;48.194;16.322;2022-07-23T07:45:12;7.68;;;5.07;;
18265;SDS011;9259;48.194;16.322;2022-07-23T07:47:40;8.38;;;5.00;;
18265;SDS011;9259;48.194;16.322;2022-07-23T07:50:08;6.82;;;5.00;;
18265;SDS011;9259;48.194;16.322;2022-07-23T07:52:38;5.35;;;4.60;;
18265;SDS011;9259;48.194;16.322;2022-07-23T07:55:10;7.40;;;4.63;;
18265;SDS011;9259;48.194;16.322;2022-07-23T07:57:38;6.68;;;4.70;;
18265;SDS011;9259;48.194;16.322;2022-07-23T08:00:08;9.98;;;4.63;;
18265;SDS011;9259;48.194;16.322;2022-07-23T08:02:41;5.28;;;4.65;;
18265;SDS011;9259;48.194;16.322;2022-07-23T08:05:10;8.68;;;4.40;;
18265;SDS011;9259;48.194;16.322;2022-07-23T08:07:40;6.35;;;4.88;;
18265;SDS011;9259;48.194;16.322;2022-07-23T08:10:08;8.27;;;5.05;;
18265;SDS011;9259;48.194;16.322;2022-07-23T08:12:37;8.32;;;4.95;;
18265;SDS011;9259;48.194;16.322;2022-07-23T08:15:10;8.55;;;5.50;;
18265;SDS011;9259;48.194;16.322;2022-07-23T08:17:39;7.80;;;5.22;;
18265;SDS011;9259;48.194;16.322;2022-07-23T08:20:09;6.15;;;4.47;;
18265;SDS011;9259;48.194;16.322;2022-07-23T08:22:45;6.53;;;4.53;;
18265;SDS011;9259;48.194;16.322;2022-07-23T08:25:15;7.47;;;5.00;;
18265;SDS011;9259;48.194;16.322;2022-07-23T08:27:50;6.68;;;5.22;;
18265;SDS011;9259;48.194;16.322;2022-07-23T08:30:18;7.07;;;5.03;;
18265;SDS011;9259;48.194;16.322;2022-07-23T08:32:47;6.65;;;5.10;;
18265;SDS011;9259;48.194;16.322;2022-07-23T08:35:24;5.32;;;4.70;;
18265;SDS011;9259;48.194;16.322;2022-07-23T08:37:55;6.03;;;4.72;;
18265;SDS011;9259;48.194;16.322;2022-07-23T08:40:25;6.82;;;5.05;;
18265;SDS011;9259;48.194;16.322;2022-07-23T08:42:55;7.85;;;5.13;;
18265;SDS011;9259;48.194;16.322;2022-07-23T08:45:24;8.85;;;5.22;;
18265;SDS011;9259;48.194;16.322;2022-07-23T08:47:54;5.45;;;4.80;;
18265;SDS011;9259;48.194;16.322;2022-07-23T08:50:25;8.57;;;5.45;;
18265;SDS011;9259;48.194;16.322;2022-07-23T08:52:53;7.45;;;5.03;;
18265;SDS011;9259;48.194;16.322;2022-07-23T08:55:24;8.25;;;5.38;;
18265;SDS011;9259;48.194;16.322;2022-07-23T08:57:52;7.53;;;5.30;;
18265;SDS011;9259;48.194;16.322;2022-07-23T09:00:20;8.38;;;5.38;;
18265;SDS011;9259;48.194;16.322;2022-07-23T09:02:49;7.15;;;5.38;;
18265;SDS011;9259;48.194;16.322;2022-07-23T09:05:18;6.57;;;5.53;;
18265;SDS011;9259;48.194;16.322;2022-07-23T09:08:07;6.63;;;5.65;;
18265;SDS011;9259;48.194;16.322;2022-07-23T09:13:31;6.28;;;5.30;;
18265;SDS011;9259;48.194;16.322;2022-07-23T09:16:04;9.50;;;5.47;;
18265;SDS011;9259;48.194;16.322;2022-07-23T09:18:36;9.02;;;6.25;;
18265;SDS011;9259;48.194;16.322;2022-07-23T09:21:12;7.35;;;5.68;;
18265;SDS011;9259;48.194;16.322;2022-07-23T09:23:54;7.28;;;5.60;;
18265;SDS011;9259;48.194;16.322;2022-07-23T09:26:26;8.32;;;5.57;;
18265;SDS011;9259;48.194;16.322;2022-07-23T09:29:00;7.38;;;5.68;;
18265;SDS011;9259;48.194;16.322;2022-07-23T09:31:42;6.07;;;5.28;;
18265;SDS011;9259;48.194;16.322;2022-07-23T09:34:13;7.55;;;5.45;;
18265;SDS011;9259;48.194;16.322;2022-07-23T09:36:45;6.53;;;5.47;;
18265;SDS011;9259;48.194;16.322;2022-07-23T09:39:21;8.98;;;5.63;;
18265;SDS011;9259;48.194;16.322;2022-07-23T09:41:53;8.90;;;5.60;;
18265;SDS011;9259;48.194;16.322;2022-07-23T09:44:21;7.72;;;5.30;;
18265;SDS011;9259;48.194;16.322;2022-07-23T09:46:57;6.90;;;5.53;;
18265;SDS011;9259;48.194;16.322;2022-07-23T09:49:26;8.73;;;5.65;;
18265;SDS011;9259;48.194;16.322;2022-07-23T09:51:57;8.57;;;6.40;;
18265;SDS011;9259;48.194;16.322;2022-07-23T09:54:29;9.30;;;6.05;;
18265;SDS011;9259;48.194;16.322;2022-07-23T09:57:01;8.43;;;5.65;;
18265;SDS011;9259;48.194;16.322;2022-07-23T09:59:34;8.40;;;6.20;;
18265;SDS011;9259;48.194;16.322;2022-07-23T10:02:05;8.52;;;5.82;;
18265;SDS011;9259;48.194;16.322;2022-07-23T10:04:36;9.65;;;6.10;;
18265;SDS011;9259;48.194;16.322;2022-07-23T10:07:05;6.53;;;5.40;;
18265;SDS011;9259;48.194;16.322;2022-07-23T10:09:38;8.15;;;6.43;;
18265;SDS011;9259;48.194;16.322;2022-07-23T10:12:09;8.05;;;5.75;;
18265;SDS011;9259;48.194;16.322;2022-07-23T10:14:42;7.68;;;6.30;;
18265;SDS011;9259;48.194;16.322;2022-07-23T10:17:11;8.80;;;6.07;;
18265;SDS011;9259;48.194;16.322;2022-07-23T10:19:39;7.68;;;6.35;;
18265;SDS011;9259;48.194;16.322;2022-07-23T10:22:08;8.30;;;6.35;;
18265;SDS011;9259;48.194;16.322;2022-07-23T10:24:56;7.32;;;6.53;;
18265;SDS011;9259;48.194;16.322;2022-07-23T10:27:37;7.38;;;6.65;;
18265;SDS011;9259;48.194;16.322;2022-07-23T10:30:27;8.00;;;6.00;;
18265;SDS011;9259;48.194;16.322;2022-07-23T10:33:02;5.82;;;5.22;;
18265;SDS011;9259;48.194;16.322;2022-07-23T10:35:43;9.00;;;6.05;;
18265;SDS011;9259;48.194;16.322;2022-07-23T10:38:15;10.10;;;6.38;;
18265;SDS011;9259;48.194;16.322;2022-07-23T10:40:56;9.65;;;6.25;;
18265;SDS011;9259;48.194;16.322;2022-07-23T10:43:25;8.77;;;6.07;;
18265;SDS011;9259;48.194;16.322;2022-07-23T10:45:54;8.63;;;6.40;;
18265;SDS011;9259;48.194;16.322;2022-07-23T10:48:23;9.27;;;5.93;;
18265;SDS011;9259;48.194;16.322;2022-07-23T10:53:54;9.25;;;6.18;;
18265;SDS011;9259;48.194;16.322;2022-07-23T10:59:31;9.57;;;6.13;;
18265;SDS011;9259;48.194;16.322;2022-07-23T11:02:20;10.27;;;6.38;;
18265;SDS011;9259;48.194;16.322;2022-07-23T11:04:49;8.80;;;6.20;;
18265;SDS011;9259;48.194;16.322;2022-07-23T11:07:18;7.85;;;6.20;;
18265;SDS011;9259;48.194;16.322;2022-07-23T11:09:46;9.65;;;6.68;;
18265;SDS011;9259;48.194;16.322;2022-07-23T11:12:35;10.30;;;6.40;;
18265;SDS011;9259;48.194;16.322;2022-07-23T11:15:04;7.80;;;6.05;;
18265;SDS011;9259;48.194;16.322;2022-07-23T11:17:34;11.27;;;6.70;;
18265;SDS011;9259;48.194;16.322;2022-07-23T11:20:13;9.00;;;6.65;;
18265;SDS011;9259;48.194;16.322;2022-07-23T11:22:49;9.30;;;6.20;;
18265;SDS011;9259;48.194;16.322;2022-07-23T11:25:30;8.18;;;6.68;;
18265;SDS011;9259;48.194;16.322;2022-07-23T11:28:10;8.57;;;6.15;;
18265;SDS011;9259;48.194;16.322;2022-07-23T11:30:42;9.60;;;7.00;;
18265;SDS011;9259;48.194;16.322;2022-07-23T11:33:15;9.40;;;6.82;;
18265;SDS011;9259;48.194;16.322;2022-07-23T11:35:45;8.32;;;6.30;;
18265;SDS011;9259;48.194;16.322;2022-07-23T11:38:15;8.60;;;6.60;;
18265;SDS011;9259;48.194;16.322;2022-07-23T11:40:45;9.38;;;7.10;;
18265;SDS011;9259;48.194;16.322;2022-07-23T11:43:15;7.40;;;6.65;;
18265;SDS011;9259;48.194;16.322;2022-07-23T11:45:45;9.98;;;6.35;;
18265;SDS011;9259;48.194;16.322;2022-07-23T11:48:17;8.57;;;6.68;;
18265;SDS011;9259;48.194;16.322;2022-07-23T11:50:47;9.50;;;6.93;;
18265;SDS011;9259;48.194;16.322;2022-07-23T11:53:22;8.93;;;6.90;;
18265;SDS011;9259;48.194;16.322;2022-07-23T11:55:50;8.98;;;7.28;;
18265;SDS011;9259;48.194;16.322;2022-07-23T11:58:20;9.73;;;7.63;;
18265;SDS011;9259;48.194;16.322;2022-07-23T12:00:48;9.32;;;7.28;;
18265;SDS011;9259;48.194;16.322;2022-07-23T12:03:16;8.25;;;6.82;;
18265;SDS011;9259;48.194;16.322;2022-07-23T12:05:44;7.75;;;6.88;;
18265;SDS011;9259;48.194;16.322;2022-07-23T12:08:12;9.85;;;6.70;;
18265;SDS011;9259;48.194;16.322;2022-07-23T12:10:41;10.65;;;6.60;;
18265;SDS011;9259;48.194;16.322;2022-07-23T12:13:11;7.50;;;6.43;;
18265;SDS011;9259;48.194;16.322;2022-07-23T12:15:42;9.68;;;6.53;;
18265;SDS011;9259;48.194;16.322;2022-07-23T12:18:12;6.38;;;5.78;;
18265;SDS011;9259;48.194;16.322;2022-07-23T12:20:41;10.38;;;6.32;;
18265;SDS011;9259;48.194;16.322;2022-07-23T12:23:17;10.20;;;6.57;;
18265;SDS011;9259;48.194;16.322;2022-07-23T12:25:47;9.73;;;6.68;;
18265;SDS011;9259;48.194;16.322;2022-07-23T12:28:16;7.88;;;6.40;;
18265;SDS011;9259;48.194;16.322;2022-07-23T12:30:47;10.75;;;6.13;;
18265;SDS011;9259;48.194;16.322;2022-07-23T12:33:21;8.25;;;6.25;;
18265;SDS011;9259;48.194;16.322;2022-07-23T12:35:50;10.98;;;6.80;;
18265;SDS011;9259;48.194;16.322;2022-07-23T12:38:20;7.70;;;6.13;;
18265;SDS011;9259;48.194;16.322;2022-07-23T12:40:49;9.77;;;5.68;;
18265;SDS011;9259;48.194;16.322;2022-07-23T12:43:19;5.50;;;5.00;;
18265;SDS011;9259;48.194;16.322;2022-07-23T12:45:51;7.57;;;5.03;;
18265;SDS011;9259;48.194;16.322;2022-07-23T12:48:21;7.18;;;4.85;;
18265;SDS011;9259;48.194;16.322;2022-07-23T12:50:52;6.50;;;4.28;;
18265;SDS011;9259;48.194;16.322;2022-07-23T12:53:27;6.13;;;4.85;;
18265;SDS011;9259;48.194;16.322;2022-07-23T12:56:02;7.30;;;4.20;;
18265;SDS011;9259;48.194;16.322;2022-07-23T12:58:42;5.93;;;4.15;;
18265;SDS011;9259;48.194;16.322;2022-07-23T13:01:23;4.97;;;3.92;;
18265;SDS011;9259;48.194;16.322;2022-07-23T13:04:00;5.30;;;4.00;;
18265;SDS011;9259;48.194;16.322;2022-07-23T13:06:31;3.55;;;3.05;;
18265;SDS011;9259;48.194;16.322;2022-07-23T13:09:01;4.00;;;3.15;;
18265;SDS011;9259;48.194;16.322;2022-07-23T13:11:32;4.53;;;3.05;;
18265;SDS011;9259;48.194;16.322;2022-07-23T13:14:03;4.35;;;3.35;;
18265;SDS011;9259;48.194;16.322;2022-07-23T13:16:32;4.35;;;3.03;;
18265;SDS011;9259;48.194;16.322;2022-07-23T13:19:01;3.13;;;2.83;;
18265;SDS011;9259;48.194;16.322;2022-07-23T13:21:29;4.00;;;2.90;;
18265;SDS011;9259;48.194;16.322;2022-07-23T13:23:57;4.80;;;3.00;;
18265;SDS011;9259;48.194;16.322;2022-07-23T13:26:25;5.22;;;2.42;;
18265;SDS011;9259;48.194;16.322;2022-07-23T13:28:54;3.90;;;2.72;;
18265;SDS011;9259;48.194;16.322;2022-07-23T13:31:22;4.00;;;3.05;;
18265;SDS011;9259;48.194;16.322;2022-07-23T13:33:51;5.72;;;3.38;;
18265;SDS011;9259;48.194;16.322;2022-07-23T13:36:19;4.80;;;3.22;;
18265;SDS011;9259;48.194;16.322;2022-07-23T13:38:50;4.15;;;3.05;;
18265;SDS011;9259;48.194;16.322;2022-07-23T13:41:18;3.92;;;3.00;;
18265;SDS011;9259;48.194;16.322;2022-07-23T13:43:46;3.70;;;3.00;;
18265;SDS011;9259;48.194;16.322;2022-07-23T13:46:14;3.10;;;2.65;;
18265;SDS011;9259;48.194;16.322;2022-07-23T13:48:42;3.63;;;2.75;;
18265;SDS011;9259;48.194;16.322;2022-07-23T13:51:12;5.32;;;3.28;;
18265;SDS011;9259;48.194;16.322;2022-07-23T13:53:41;4.30;;;3.00;;
18265;SDS011;9259;48.194;16.322;2022-07-23T13:56:09;4.55;;;3.15;;
18265;SDS011;9259;48.194;16.322;2022-07-23T13:58:37;4.65;;;2.47;;
18265;SDS011;9259;48.194;16.322;2022-07-23T14:01:06;3.92;;;3.25;;
18265;SDS011;9259;48.194;16.322;2022-07-23T14:03:34;7.88;;;4.70;;
18265;SDS011;9259;48.194;16.322;2022-07-23T14:06:02;4.90;;;4.25;;
18265;SDS011;9259;48.194;16.322;2022-07-23T14:08:32;4.95;;;3.45;;
18265;SDS011;9259;48.194;16.322;2022-07-23T14:11:00;4.35;;;3.63;;
18265;SDS011;9259;48.194;16.322;2022-07-23T14:13:29;4.30;;;3.42;;
18265;SDS011;9259;48.194;16.322;2022-07-23T14:15:57;5.10;;;3.30;;
18265;SDS011;9259;48.194;16.322;2022-07-23T14:18:25;3.13;;;2.60;;
18265;SDS011;9259;48.194;16.322;2022-07-23T14:20:53;3.03;;;2.63;;
18265;SDS011;9259;48.194;16.322;2022-07-23T14:23:21;4.80;;;3.22;;
18265;SDS011;9259;48.194;16.322;2022-07-23T14:25:50;6.15;;;2.85;;
18265;SDS011;9259;48.194;16.322;2022-07-23T14:28:18;5.28;;;2.67;;
18265;SDS011;9259;48.194;16.322;2022-07-23T14:30:46;6.65;;;3.20;;
18265;SDS011;9259;48.194;16.322;2022-07-23T14:33:14;6.00;;;3.30;;
18265;SDS011;9259;48.194;16.322;2022-07-23T14:35:42;4.20;;;3.28;;
18265;SDS011;9259;48.194;16.322;2022-07-23T14:38:10;4.55;;;3.33;;
18265;SDS011;9259;48.194;16.322;2022-07-23T14:40:44;3.50;;;2.95;;
18265;SDS011;9259;48.194;16.322;2022-07-23T14:43:13;4.55;;;2.90;;
18265;SDS011;9259;48.194;16.322;2022-07-23T14:45:40;5.15;;;3.30;;
18265;SDS011;9259;48.194;16.322;2022-07-23T14:48:08;5.38;;;3.05;;
18265;SDS011;9259;48.194;16.322;2022-07-23T14:50:36;5.68;;;3.75;;
18265;SDS011;9259;48.194;16.322;2022-07-23T14:53:04;4.68;;;3.30;;
18265;SDS011;9259;48.194;16.322;2022-07-23T14:55:32;6.00;;;3.42;;
18265;SDS011;9259;48.194;16.322;2022-07-23T14:58:00;5.72;;;3.50;;
18265;SDS011;9259;48.194;16.322;2022-07-23T15:00:29;10.23;;;3.58;;
18265;SDS011;9259;48.194;16.322;2022-07-23T15:02:57;6.47;;;3.70;;
18265;SDS011;9259;48.194;16.322;2022-07-23T15:05:25;4.03;;;3.60;;